createdAt,value
2017-12-27T00:00:10.341Z,5.30
2017-12-27T00:02:44.157Z,5.30
2017-12-27T00:05:17.939Z,5.30
2017-12-27T00:07:52.617Z,5.20
2017-12-27T00:10:26.356Z,5.20
2017-12-27T00:13:13.173Z,5.20
2017-12-27T00:15:47.002Z,5.30
2017-12-27T00:18:20.944Z,5.40
2017-12-27T00:20:54.867Z,5.40
2017-12-27T00:23:28.550Z,5.30
2017-12-27T00:26:02.270Z,5.20
2017-12-27T00:28:36.026Z,5.30
2017-12-27T00:31:10.641Z,5.30
2017-12-27T00:33:38.804Z,5.30
2017-12-27T00:36:06.928Z,5.30
2017-12-27T00:38:35.087Z,5.40
2017-12-27T00:41:03.218Z,5.40
2017-12-27T00:43:32.126Z,5.60
2017-12-27T00:46:00.273Z,5.60
2017-12-27T00:48:28.412Z,5.60
2017-12-27T00:50:56.565Z,5.50
2017-12-27T00:53:24.712Z,5.50
2017-12-27T00:55:52.872Z,5.40
2017-12-27T00:58:21.773Z,5.30
2017-12-27T01:00:49.905Z,5.30
2017-12-27T01:03:18.059Z,5.30
2017-12-27T01:05:46.176Z,5.40
2017-12-27T01:08:14.961Z,5.50
2017-12-27T01:10:43.091Z,5.50
2017-12-27T01:13:11.250Z,5.60
2017-12-27T01:15:39.372Z,5.40
2017-12-27T01:18:08.298Z,5.40
2017-12-27T01:20:36.418Z,5.50
2017-12-27T01:23:05.309Z,5.60
2017-12-27T01:25:33.942Z,5.60
2017-12-27T01:28:02.067Z,5.60
2017-12-27T01:30:30.764Z,5.60
2017-12-27T01:32:58.869Z,5.50
2017-12-27T01:35:27.000Z,5.40
2017-12-27T01:37:55.144Z,5.50
2017-12-27T01:40:23.311Z,5.40
2017-12-27T01:42:52.195Z,5.40
2017-12-27T01:45:22.629Z,5.40
2017-12-27T01:47:51.529Z,5.50
2017-12-27T01:50:20.420Z,5.60
2017-12-27T01:52:48.589Z,5.60
2017-12-27T01:55:16.695Z,5.60
2017-12-27T01:57:44.836Z,5.50
2017-12-27T02:00:12.966Z,5.40
2017-12-27T02:02:41.132Z,5.40
2017-12-27T02:05:09.252Z,5.40
2017-12-27T02:07:38.172Z,5.40
2017-12-27T02:10:07.621Z,5.50
2017-12-27T02:12:35.740Z,5.50
2017-12-27T02:15:03.882Z,5.60
2017-12-27T02:17:32.039Z,5.50
2017-12-27T02:20:00.933Z,5.50
2017-12-27T02:22:29.072Z,5.50
2017-12-27T02:24:57.199Z,5.50
2017-12-27T02:27:26.107Z,5.60
2017-12-27T02:29:54.987Z,5.50
2017-12-27T02:32:23.144Z,5.50
2017-12-27T02:34:51.256Z,5.60
2017-12-27T02:37:19.404Z,5.60
2017-12-27T02:42:54.096Z,5.60
2017-12-27T02:45:22.233Z,5.50
2017-12-27T02:47:51.156Z,5.60
2017-12-27T02:50:19.299Z,5.60
2017-12-27T02:52:48.164Z,5.60
2017-12-27T02:55:16.306Z,5.80
2017-12-27T02:57:45.207Z,5.80
2017-12-27T03:00:15.699Z,5.80
2017-12-27T03:02:43.847Z,5.80
2017-12-27T03:05:11.972Z,5.80
2017-12-27T03:07:40.108Z,5.80
2017-12-27T03:10:09.003Z,5.80
2017-12-27T03:12:37.149Z,5.80
2017-12-27T03:15:05.347Z,5.70
2017-12-27T03:17:33.509Z,5.70
2017-12-27T03:20:01.623Z,5.70
2017-12-27T03:22:29.802Z,5.80
2017-12-27T03:24:57.936Z,5.80
2017-12-27T03:27:26.819Z,5.80
2017-12-27T03:29:54.988Z,5.80
2017-12-27T03:32:23.117Z,5.90
2017-12-27T03:34:51.999Z,5.80
2017-12-27T03:37:20.893Z,5.80
2017-12-27T03:39:49.040Z,5.80
2017-12-27T03:42:17.197Z,5.80
2017-12-27T03:44:45.320Z,5.80
2017-12-27T03:47:13.451Z,5.70
2017-12-27T03:49:42.433Z,5.70
2017-12-27T03:52:10.551Z,5.70
2017-12-27T03:54:39.456Z,5.90
2017-12-27T03:57:08.352Z,5.90
2017-12-27T03:59:37.252Z,6.00
2017-12-27T04:02:06.145Z,6.00
2017-12-27T04:04:34.302Z,6.00
2017-12-27T04:07:02.429Z,6.00
2017-12-27T04:09:31.300Z,6.00
2017-12-27T04:11:59.450Z,6.00
2017-12-27T04:14:27.581Z,6.00
2017-12-27T04:16:55.826Z,6.00
2017-12-27T04:19:24.694Z,6.00
2017-12-27T04:21:53.607Z,6.00
2017-12-27T04:24:22.497Z,6.10
2017-12-27T04:26:51.394Z,6.00
2017-12-27T04:29:19.521Z,6.00
2017-12-27T04:31:47.653Z,6.00
2017-12-27T04:34:17.300Z,6.00
2017-12-27T04:36:47.361Z,6.20
2017-12-27T04:39:15.824Z,6.20
2017-12-27T04:41:43.929Z,6.30
2017-12-27T04:44:12.612Z,6.30
2017-12-27T04:46:41.496Z,6.30
2017-12-27T04:49:09.635Z,6.30
2017-12-27T04:51:37.768Z,6.30
2017-12-27T04:54:05.912Z,6.50
2017-12-27T04:56:34.027Z,6.50
2017-12-27T04:59:02.179Z,6.40
2017-12-27T05:01:30.301Z,6.40
2017-12-27T05:03:58.431Z,6.50
2017-12-27T05:06:26.549Z,6.40
2017-12-27T05:08:54.699Z,6.40
2017-12-27T05:11:22.829Z,6.30
2017-12-27T05:13:50.964Z,6.30
2017-12-27T05:16:19.850Z,6.10
2017-12-27T05:18:47.980Z,6.10
2017-12-27T05:21:16.099Z,6.00
2017-12-27T05:23:45.107Z,6.00
2017-12-27T05:26:13.257Z,6.00
2017-12-27T05:28:41.409Z,6.00
2017-12-27T05:31:09.532Z,5.90
2017-12-27T05:33:38.479Z,6.00
2017-12-27T05:36:07.733Z,6.00
2017-12-27T05:38:37.826Z,6.00
2017-12-27T05:41:05.961Z,6.00
2017-12-27T05:43:34.086Z,6.00
2017-12-27T05:46:02.916Z,6.00
2017-12-27T05:48:31.804Z,6.10
2017-12-27T05:51:00.723Z,6.20
2017-12-27T05:53:28.856Z,6.20
2017-12-27T05:55:56.983Z,6.30
2017-12-27T05:58:25.879Z,6.30
2017-12-27T06:00:54.776Z,6.20
2017-12-27T06:03:23.684Z,6.20
2017-12-27T06:05:51.804Z,6.20
2017-12-27T06:08:19.969Z,6.20
2017-12-27T06:10:48.101Z,6.10
2017-12-27T06:13:16.231Z,6.10
2017-12-27T06:15:45.116Z,6.00
2017-12-27T06:18:13.263Z,6.00
2017-12-27T06:20:41.384Z,6.10
2017-12-27T06:23:09.538Z,6.20
2017-12-27T06:25:37.660Z,6.00
2017-12-27T06:28:07.297Z,5.80
2017-12-27T06:30:36.212Z,5.80
2017-12-27T06:33:05.921Z,5.80
2017-12-27T06:35:35.248Z,5.80
2017-12-27T06:38:05.019Z,5.70
2017-12-27T06:40:33.152Z,5.70
2017-12-27T06:43:02.042Z,5.70
2017-12-27T06:45:30.202Z,5.70
2017-12-27T06:47:58.341Z,5.70
2017-12-27T06:50:27.248Z,5.70
2017-12-27T06:52:56.410Z,5.70
2017-12-27T06:55:24.576Z,5.70
2017-12-27T06:57:54.533Z,5.60
2017-12-27T07:00:22.632Z,5.60
2017-12-27T07:02:50.768Z,5.70
2017-12-27T07:05:23.849Z,5.70
2017-12-27T07:07:51.976Z,5.70
2017-12-27T07:10:20.104Z,5.80
2017-12-27T07:12:49.008Z,5.80
2017-12-27T07:15:17.961Z,5.90
2017-12-27T07:17:46.096Z,6.00
2017-12-27T07:20:14.998Z,5.90
2017-12-27T07:22:43.926Z,5.90
2017-12-27T07:25:12.816Z,5.90
2017-12-27T07:27:40.960Z,5.90
2017-12-27T07:30:09.867Z,6.00
2017-12-27T07:32:37.990Z,5.90
2017-12-27T07:35:06.903Z,5.80
2017-12-27T07:37:35.796Z,5.80
2017-12-27T07:40:03.934Z,5.80
2017-12-27T07:42:32.052Z,5.80
2017-12-27T07:45:00.979Z,5.90
2017-12-27T07:47:29.160Z,5.90
2017-12-27T07:49:58.084Z,6.00
2017-12-27T07:52:26.193Z,5.90
2017-12-27T07:54:54.345Z,5.90
2017-12-27T07:57:22.485Z,6.00
2017-12-27T07:59:51.549Z,6.10
2017-12-27T08:02:20.489Z,6.00
2017-12-27T08:04:48.611Z,6.10
2017-12-27T08:07:18.368Z,6.00
2017-12-27T08:09:48.468Z,6.10
2017-12-27T08:12:18.160Z,6.10
2017-12-27T08:14:46.312Z,6.10
2017-12-27T08:17:14.453Z,6.00
2017-12-27T08:19:43.342Z,5.70
2017-12-27T08:22:11.498Z,5.70
2017-12-27T08:24:39.617Z,5.50
2017-12-27T08:27:07.798Z,5.50
2017-12-27T08:29:35.940Z,5.40
2017-12-27T08:32:04.068Z,5.50
2017-12-27T08:34:32.240Z,5.50
2017-12-27T08:37:01.342Z,5.50
2017-12-27T08:39:29.487Z,5.70
2017-12-27T08:41:58.377Z,5.90
2017-12-27T08:44:26.505Z,5.90
2017-12-27T08:46:55.813Z,5.90
2017-12-27T08:49:23.943Z,5.80
2017-12-27T08:51:52.210Z,5.70
2017-12-27T08:54:20.356Z,5.60
2017-12-27T08:56:49.688Z,5.60
2017-12-27T08:59:18.610Z,5.60
2017-12-27T09:01:46.737Z,5.60
2017-12-27T09:04:15.620Z,5.80
2017-12-27T09:06:43.761Z,5.80
2017-12-27T09:09:11.916Z,5.80
2017-12-27T09:11:40.830Z,6.00
2017-12-27T09:14:09.717Z,6.00
2017-12-27T09:16:40.210Z,5.90
2017-12-27T09:19:08.368Z,5.90
2017-12-27T09:21:37.249Z,5.90
2017-12-27T09:24:07.013Z,5.90
2017-12-27T09:26:35.916Z,5.90
2017-12-27T09:29:04.074Z,5.90
2017-12-27T09:31:32.980Z,6.20
2017-12-27T09:34:01.911Z,6.10
2017-12-27T09:36:30.044Z,6.20
2017-12-27T09:38:59.074Z,6.20
2017-12-27T09:41:27.188Z,6.30
2017-12-27T09:43:55.340Z,6.30
2017-12-27T09:46:24.251Z,6.20
2017-12-27T09:48:52.391Z,6.20
2017-12-27T09:51:20.496Z,6.30
2017-12-27T09:53:48.675Z,6.30
2017-12-27T09:56:16.813Z,6.40
2017-12-27T09:58:44.952Z,6.40
2017-12-27T10:01:13.122Z,6.40
2017-12-27T10:03:41.371Z,6.40
2017-12-27T10:06:10.257Z,6.30
2017-12-27T10:08:38.396Z,6.30
2017-12-27T10:11:08.238Z,6.30
2017-12-27T10:13:36.361Z,6.30
2017-12-27T10:16:06.198Z,6.40
2017-12-27T10:18:34.317Z,6.40
2017-12-27T10:21:02.502Z,6.40
2017-12-27T10:23:30.619Z,6.40
2017-12-27T10:25:59.563Z,6.50
2017-12-27T10:28:27.710Z,6.50
2017-12-27T10:30:55.844Z,6.50
2017-12-27T10:33:23.986Z,6.60
2017-12-27T10:35:52.142Z,6.60
2017-12-27T10:38:20.294Z,6.60
2017-12-27T10:40:48.452Z,6.70
2017-12-27T10:43:17.388Z,6.70
2017-12-27T10:45:45.513Z,6.70
2017-12-27T10:48:13.661Z,6.70
2017-12-27T10:50:41.807Z,6.70
2017-12-27T10:53:10.724Z,6.80
2017-12-27T10:55:39.655Z,6.80
2017-12-27T10:58:07.800Z,6.80
2017-12-27T11:00:37.042Z,6.80
2017-12-27T11:03:05.954Z,6.80
2017-12-27T11:05:34.965Z,6.80
2017-12-27T11:08:03.119Z,6.80
2017-12-27T11:10:31.251Z,6.90
2017-12-27T11:12:59.457Z,6.90
2017-12-27T11:15:27.600Z,6.80
2017-12-27T11:17:55.758Z,6.80
2017-12-27T11:20:24.692Z,6.80
2017-12-27T11:22:53.586Z,6.80
2017-12-27T11:25:21.736Z,6.80
2017-12-27T11:27:49.887Z,6.90
2017-12-27T11:30:18.035Z,6.90
2017-12-27T11:32:46.170Z,6.90
2017-12-27T11:35:14.332Z,6.90
2017-12-27T11:37:42.484Z,6.90
2017-12-27T11:40:11.383Z,7.00
2017-12-27T11:42:40.304Z,7.00
2017-12-27T11:45:08.450Z,7.00
2017-12-27T11:47:36.596Z,7.00
2017-12-27T11:50:04.739Z,7.10
2017-12-27T11:52:34.392Z,7.20
2017-12-27T11:55:02.524Z,7.10
2017-12-27T11:57:31.722Z,7.20
2017-12-27T11:59:59.851Z,7.30
2017-12-27T12:02:28.758Z,7.40
2017-12-27T12:04:57.680Z,7.60
2017-12-27T12:07:26.567Z,7.60
2017-12-27T12:09:56.361Z,7.60
2017-12-27T12:12:24.508Z,7.60
2017-12-27T12:14:52.649Z,7.70
2017-12-27T12:17:24.123Z,7.70
2017-12-27T12:19:52.379Z,7.70
2017-12-27T12:22:20.516Z,7.70
2017-12-27T12:24:49.413Z,7.70
2017-12-27T12:27:18.325Z,7.70
2017-12-27T12:29:47.223Z,7.60
2017-12-27T12:32:15.359Z,7.60
2017-12-27T12:34:43.515Z,7.50
2017-12-27T12:37:11.630Z,7.30
2017-12-27T12:39:39.792Z,7.30
2017-12-27T12:42:07.912Z,7.30
2017-12-27T12:44:36.053Z,7.40
2017-12-27T12:47:04.184Z,7.40
2017-12-27T12:49:32.336Z,7.50
2017-12-27T12:52:00.470Z,7.40
2017-12-27T12:54:28.596Z,7.50
2017-12-27T12:56:56.760Z,7.50
2017-12-27T12:59:26.220Z,7.50
2017-12-27T13:01:55.149Z,7.40
2017-12-27T13:04:23.281Z,7.40
2017-12-27T13:06:52.155Z,7.30
2017-12-27T13:09:21.072Z,7.40
2017-12-27T13:11:49.982Z,7.50
2017-12-27T13:14:18.914Z,7.60
2017-12-27T13:16:47.244Z,7.60
2017-12-27T13:19:15.382Z,7.60
2017-12-27T13:21:43.532Z,7.60
2017-12-27T13:24:12.440Z,7.60
2017-12-27T13:26:44.976Z,7.60
2017-12-27T13:29:13.169Z,7.60
2017-12-27T13:31:41.334Z,7.50
2017-12-27T13:34:09.477Z,7.50
2017-12-27T13:36:37.644Z,7.50
2017-12-27T13:39:05.773Z,7.50
2017-12-27T13:41:33.933Z,7.50
2017-12-27T13:44:02.200Z,7.60
2017-12-27T13:46:30.345Z,7.60
2017-12-27T13:48:58.545Z,7.50
2017-12-27T13:51:27.438Z,7.50
2017-12-27T13:53:55.595Z,7.60
2017-12-27T13:56:24.498Z,7.60
2017-12-27T13:58:53.419Z,7.70
2017-12-27T14:01:22.303Z,7.80
2017-12-27T14:03:52.061Z,7.90
2017-12-27T14:06:20.956Z,7.90
2017-12-27T14:08:49.122Z,7.80
2017-12-27T14:11:18.060Z,8.10
2017-12-27T14:13:46.199Z,8.00
2017-12-27T14:16:14.338Z,8.10
2017-12-27T14:18:42.496Z,8.10
2017-12-27T14:21:11.468Z,8.10
2017-12-27T14:23:39.603Z,8.10
2017-12-27T14:26:07.757Z,7.90
2017-12-27T14:28:36.676Z,7.90
2017-12-27T14:31:05.569Z,7.80
2017-12-27T14:33:34.490Z,7.80
2017-12-27T14:36:02.614Z,7.80
2017-12-27T14:38:30.774Z,7.70
2017-12-27T14:40:58.901Z,7.70
2017-12-27T14:43:27.053Z,7.70
2017-12-27T14:45:55.183Z,7.70
2017-12-27T14:48:23.362Z,7.80
2017-12-27T14:50:51.512Z,7.70
2017-12-27T14:53:19.641Z,7.80
2017-12-27T14:55:47.801Z,7.80
2017-12-27T14:58:15.908Z,7.90
2017-12-27T15:00:44.047Z,7.80
2017-12-27T15:03:12.188Z,7.90
2017-12-27T15:05:40.304Z,7.90
2017-12-27T15:08:08.472Z,7.90
2017-12-27T15:10:37.378Z,7.90
2017-12-27T15:13:06.286Z,7.80
2017-12-27T15:15:35.229Z,7.80
2017-12-27T15:18:03.368Z,7.80
2017-12-27T15:20:31.571Z,7.70
2017-12-27T15:22:59.709Z,7.70
2017-12-27T15:25:28.588Z,7.90
2017-12-27T15:27:56.776Z,7.80
2017-12-27T15:30:24.903Z,7.80
2017-12-27T15:32:53.026Z,7.80
2017-12-27T15:35:21.179Z,7.80
2017-12-27T15:37:49.364Z,7.70
2017-12-27T15:40:17.521Z,7.60
2017-12-27T15:42:45.674Z,7.40
2017-12-27T15:45:13.839Z,7.40
2017-12-27T15:47:42.796Z,7.20
2017-12-27T15:50:10.949Z,7.20
2017-12-27T15:52:39.084Z,7.00
2017-12-27T15:55:07.244Z,6.90
2017-12-27T15:57:36.219Z,6.90
2017-12-27T16:00:05.124Z,6.80
2017-12-27T16:02:33.258Z,6.80
2017-12-27T16:05:01.427Z,6.80
2017-12-27T16:07:29.567Z,6.90
2017-12-27T16:09:58.519Z,6.90
2017-12-27T16:12:26.684Z,6.90
2017-12-27T16:14:54.812Z,6.90
2017-12-27T16:17:23.756Z,6.90
2017-12-27T16:19:52.668Z,6.80
2017-12-27T16:22:21.593Z,6.80
2017-12-27T16:24:49.737Z,6.80
2017-12-27T16:27:17.899Z,6.80
2017-12-27T16:29:46.033Z,6.80
2017-12-27T16:32:14.345Z,6.80
2017-12-27T16:34:42.505Z,6.70
2017-12-27T16:37:11.399Z,6.70
2017-12-27T16:39:40.305Z,6.60
2017-12-27T16:42:09.201Z,6.60
2017-12-27T16:44:38.133Z,6.30
2017-12-27T16:47:06.264Z,6.30
2017-12-27T16:49:34.435Z,5.90
2017-12-27T16:52:02.572Z,5.80
2017-12-27T16:54:31.523Z,5.60
2017-12-27T16:56:59.700Z,5.60
2017-12-27T16:59:27.839Z,5.80
2017-12-27T17:01:56.732Z,6.20
2017-12-27T17:04:26.199Z,6.30
2017-12-27T17:06:54.339Z,6.20
2017-12-27T17:09:22.501Z,6.30
2017-12-27T17:11:50.646Z,6.40
2017-12-27T17:14:19.405Z,6.40
2017-12-27T17:16:47.545Z,6.40
2017-12-27T17:19:15.696Z,6.40
2017-12-27T17:21:45.480Z,6.20
2017-12-27T17:24:13.639Z,6.30
2017-12-27T17:26:41.805Z,6.00
2017-12-27T17:29:10.697Z,5.50
2017-12-27T17:31:38.861Z,5.50
2017-12-27T17:34:07.028Z,5.50
2017-12-27T17:36:35.198Z,5.60
2017-12-27T17:39:03.373Z,5.70
2017-12-27T17:41:31.526Z,5.60
2017-12-27T17:44:00.456Z,5.30
2017-12-27T17:46:28.596Z,5.30
2017-12-27T17:48:56.773Z,5.40
2017-12-27T17:51:24.910Z,5.70
2017-12-27T17:53:53.052Z,5.60
2017-12-27T17:56:21.248Z,5.50
2017-12-27T17:58:49.577Z,5.70
2017-12-27T18:01:17.706Z,5.80
2017-12-27T18:03:45.856Z,5.90
2017-12-27T18:06:13.998Z,6.00
2017-12-27T18:08:42.954Z,5.50
2017-12-27T18:11:11.099Z,5.50
2017-12-27T18:13:40.021Z,5.10
2017-12-27T18:16:08.196Z,5.10
2017-12-27T18:18:37.092Z,5.00
2017-12-27T18:21:05.999Z,5.00
2017-12-27T18:23:34.929Z,5.30
2017-12-27T18:26:03.062Z,5.30
2017-12-27T18:28:31.230Z,5.30
2017-12-27T18:30:59.365Z,5.30
2017-12-27T18:33:28.296Z,5.70
2017-12-27T18:35:56.461Z,5.70
2017-12-27T18:38:25.392Z,5.70
2017-12-27T18:40:53.504Z,5.70
2017-12-27T18:43:21.709Z,5.80
2017-12-27T18:45:49.820Z,5.90
2017-12-27T18:48:17.978Z,5.90
2017-12-27T18:50:46.125Z,6.10
2017-12-27T18:53:14.969Z,6.10
2017-12-27T18:55:43.107Z,6.10
2017-12-27T18:58:12.012Z,6.10
2017-12-27T19:00:41.110Z,6.10
2017-12-27T19:03:09.256Z,6.10
2017-12-27T19:05:38.190Z,6.00
2017-12-27T19:08:07.106Z,6.10
2017-12-27T19:10:36.135Z,6.10
2017-12-27T19:13:05.082Z,6.10
2017-12-27T19:15:34.004Z,6.30
2017-12-27T19:18:02.164Z,6.30
2017-12-27T19:20:30.331Z,6.40
2017-12-27T19:22:58.468Z,6.40
2017-12-27T19:25:26.671Z,6.30
2017-12-27T19:27:54.808Z,6.40
2017-12-27T19:30:22.983Z,6.30
2017-12-27T19:32:51.132Z,6.30
2017-12-27T19:35:19.378Z,6.30
2017-12-27T19:37:48.502Z,6.30
2017-12-27T19:40:17.432Z,6.30
2017-12-27T19:42:45.567Z,6.30
2017-12-27T19:45:14.782Z,6.20
2017-12-27T19:47:42.933Z,6.20
2017-12-27T19:50:12.942Z,6.20
2017-12-27T19:52:42.085Z,6.30
2017-12-27T19:55:11.759Z,6.20
2017-12-27T19:57:41.606Z,6.20
2017-12-27T20:00:09.789Z,6.20
2017-12-27T20:02:37.956Z,6.20
2017-12-27T20:05:07.541Z,6.20
2017-12-27T20:07:35.715Z,6.20
2017-12-27T20:10:04.664Z,6.10
2017-12-27T20:12:32.841Z,6.10
2017-12-27T20:15:01.009Z,6.10
2017-12-27T20:17:29.903Z,6.10
2017-12-27T20:19:58.069Z,6.10
2017-12-27T20:22:26.238Z,5.90
2017-12-27T20:24:54.372Z,5.90
2017-12-27T20:27:22.529Z,5.90
2017-12-27T20:29:50.703Z,5.80
2017-12-27T20:32:18.888Z,5.60
2017-12-27T20:34:47.077Z,5.60
2017-12-27T20:37:15.248Z,5.60
2017-12-27T20:39:43.389Z,5.50
2017-12-27T20:42:11.533Z,5.50
2017-12-27T20:44:39.687Z,5.50
2017-12-27T20:47:08.609Z,5.50
2017-12-27T20:49:36.762Z,5.50
2017-12-27T20:52:04.930Z,5.30
2017-12-27T20:54:33.080Z,5.50
2017-12-27T20:57:01.219Z,5.50
2017-12-27T20:59:29.371Z,5.40
2017-12-27T21:01:57.550Z,5.50
2017-12-27T21:04:25.685Z,5.50
2017-12-27T21:06:54.596Z,5.40
2017-12-27T21:09:23.503Z,5.50
2017-12-27T21:11:51.673Z,5.50
2017-12-27T21:14:21.602Z,5.40
2017-12-27T21:16:51.589Z,5.40
2017-12-27T21:19:19.741Z,5.40
2017-12-27T21:21:47.920Z,5.30
2017-12-27T21:24:16.830Z,5.40
2017-12-27T21:26:45.725Z,5.50
2017-12-27T21:29:15.221Z,5.20
2017-12-27T21:31:44.545Z,5.20
2017-12-27T21:34:13.684Z,5.40
2017-12-27T21:36:41.836Z,5.40
2017-12-27T21:39:10.744Z,5.40
2017-12-27T21:41:39.811Z,5.40
2017-12-27T21:44:07.961Z,5.40
2017-12-27T21:46:36.890Z,5.20
2017-12-27T21:49:21.839Z,5.20
2017-12-27T21:51:49.984Z,5.10
2017-12-27T21:54:18.126Z,5.00
2017-12-27T21:56:46.249Z,5.00
2017-12-27T21:59:20.107Z,5.10
2017-12-27T22:01:48.245Z,5.10
2017-12-27T22:04:16.393Z,5.00
2017-12-27T22:06:44.574Z,5.00
2017-12-27T22:09:12.718Z,5.00
2017-12-27T22:11:40.870Z,4.90
2017-12-27T22:14:09.008Z,5.00
2017-12-27T22:16:37.920Z,5.00
2017-12-27T22:19:06.851Z,5.00
2017-12-27T22:21:35.013Z,5.00
2017-12-27T22:24:04.078Z,5.10
2017-12-27T22:26:32.267Z,5.00
2017-12-27T22:29:00.405Z,5.00
2017-12-27T22:31:28.554Z,5.00
2017-12-27T22:33:56.696Z,5.10
2017-12-27T22:36:25.653Z,5.10
2017-12-27T22:38:54.601Z,5.10
2017-12-27T22:41:22.742Z,5.10
2017-12-27T22:43:50.865Z,5.20
2017-12-27T22:46:19.034Z,5.10
2017-12-27T22:48:48.989Z,4.90
2017-12-27T22:51:17.123Z,4.90
2017-12-27T22:53:45.268Z,4.60
2017-12-27T22:56:13.427Z,4.80
2017-12-27T22:58:42.327Z,5.00
2017-12-27T23:01:11.231Z,4.90
2017-12-27T23:03:40.171Z,4.80
2017-12-27T23:06:08.301Z,4.90
2017-12-27T23:08:37.245Z,4.80
2017-12-27T23:11:05.389Z,4.70
2017-12-27T23:13:33.575Z,4.80
2017-12-27T23:16:01.695Z,4.80
2017-12-27T23:18:29.833Z,4.80
2017-12-27T23:20:57.988Z,4.80
2017-12-27T23:23:26.099Z,4.80
2017-12-27T23:25:54.256Z,4.80
2017-12-27T23:28:22.401Z,4.80
2017-12-27T23:30:51.349Z,4.80
2017-12-27T23:33:19.465Z,4.80
2017-12-27T23:35:48.382Z,4.80
2017-12-27T23:38:16.511Z,4.80
2017-12-27T23:40:44.629Z,4.80
2017-12-27T23:43:12.760Z,4.80
2017-12-27T23:45:41.694Z,4.70
2017-12-27T23:48:09.840Z,4.70
2017-12-27T23:50:37.970Z,4.80
2017-12-27T23:53:06.123Z,4.80
2017-12-27T23:55:35.036Z,4.90
2017-12-27T23:58:03.212Z,4.90
